Time;durP1;ratioP1;P1;durP2;ratioP2;P2;SDS_P1;SDS_P2;PMS_P1;PMS_P2;Temp;Humidity;BMP_temperature;BMP_pressure;BME280_temperature;BME280_humidity;BME280_pressure;Samples;Min_cycle;Max_cycle;Signal;HPM_P1;HPM_P2
2021/05/29 04:00:44;;;;;;;27.63;18.25;;;10.70;99.90;;;;;;5757195;23;20261;-65
2021/05/29 04:03:11;;;;;;;24.63;16.77;;;10.60;99.90;;;;;;4935304;29;20213;-65
2021/05/29 04:05:37;;;;;;;22.55;17.50;;;10.70;99.90;;;;;;4936442;28;20220;-66
2021/05/29 04:08:04;;;;;;;23.92;17.25;;;10.70;99.90;;;;;;4936487;29;20353;-65
2021/05/29 04:10:32;;;;;;;24.48;17.50;;;10.70;99.90;;;;;;4936401;29;20718;-65
2021/05/29 04:12:59;;;;;;;26.60;18.80;;;10.60;99.90;;;;;;4936056;29;20222;-65
2021/05/29 04:15:26;;;;;;;23.88;16.10;;;10.50;99.90;;;;;;4936586;29;20214;-66
2021/05/29 04:17:54;;;;;;;22.25;16.38;;;10.50;99.90;;;;;;4935531;29;20237;-65
2021/05/29 04:20:23;;;;;;;26.50;17.27;;;10.50;99.90;;;;;;4936301;29;20214;-66
2021/05/29 04:22:50;;;;;;;22.08;16.80;;;10.50;99.90;;;;;;4935988;29;20213;-65
2021/05/29 04:25:18;;;;;;;37.45;17.52;;;10.50;99.90;;;;;;4936090;28;20216;-66
2021/05/29 04:27:45;;;;;;;23.30;16.10;;;10.50;99.90;;;;;;4936344;29;20210;-66
2021/05/29 04:30:15;;;;;;;24.63;17.52;;;10.50;99.90;;;;;;4936404;29;20218;-66
2021/05/29 04:32:41;;;;;;;23.77;17.02;;;10.50;99.90;;;;;;4935209;29;20206;-66
2021/05/29 04:35:09;;;;;;;22.15;16.38;;;10.50;99.90;;;;;;4936167;29;20225;-66
2021/05/29 04:37:35;;;;;;;28.15;19.05;;;10.50;99.90;;;;;;4935672;29;20209;-65
2021/05/29 04:40:02;;;;;;;24.30;17.92;;;10.50;99.90;;;;;;4935679;29;20213;-65
2021/05/29 04:42:30;;;;;;;23.90;15.95;;;10.60;99.90;;;;;;4935615;29;20233;-65
2021/05/29 04:44:56;;;;;;;25.80;17.55;;;10.50;99.90;;;;;;4936068;29;20577;-64
2021/05/29 04:47:22;;;;;;;22.80;17.30;;;10.50;99.90;;;;;;4934627;29;20206;-65
2021/05/29 04:49:48;;;;;;;24.80;17.85;;;10.50;99.90;;;;;;4935690;29;20217;-64
2021/05/29 04:52:15;;;;;;;25.42;17.40;;;10.50;99.90;;;;;;4935058;29;20234;-66
2021/05/29 04:54:41;;;;;;;24.65;17.85;;;10.60;99.90;;;;;;4936001;29;20285;-65
2021/05/29 04:57:08;;;;;;;26.95;19.02;;;10.50;99.90;;;;;;4936081;29;20218;-66
2021/05/29 04:59:34;;;;;;;24.67;16.63;;;10.60;99.90;;;;;;4935620;29;20229;-65
2021/05/29 05:02:00;;;;;;;20.88;16.10;;;10.50;99.90;;;;;;4936063;29;20237;-65
2021/05/29 05:04:26;;;;;;;20.50;15.60;;;10.50;99.90;;;;;;4934477;29;20214;-66
2021/05/29 05:06:52;;;;;;;22.55;16.70;;;10.50;99.90;;;;;;4935584;29;20210;-68
2021/05/29 05:09:19;;;;;;;21.25;16.10;;;10.50;99.90;;;;;;4935051;29;20209;-67
2021/05/29 05:11:46;;;;;;;25.05;17.52;;;10.50;99.90;;;;;;4935641;29;20264;-68
2021/05/29 05:14:12;;;;;;;23.60;17.35;;;10.50;99.90;;;;;;4935299;29;20261;-68
2021/05/29 05:16:38;;;;;;;26.15;17.73;;;10.50;99.90;;;;;;4935075;29;20218;-67
2021/05/29 05:19:04;;;;;;;29.73;17.08;;;10.40;99.90;;;;;;4934766;29;20226;-67
2021/05/29 05:21:30;;;;;;;26.48;18.20;;;10.40;99.90;;;;;;4935276;29;20230;-67
2021/05/29 05:23:56;;;;;;;29.60;19.50;;;10.50;99.90;;;;;;4935288;29;20206;-67
2021/05/29 05:26:24;;;;;;;25.17;18.08;;;10.50;99.90;;;;;;4935592;29;20206;-68
2021/05/29 05:28:50;;;;;;;30.48;20.15;;;10.50;99.90;;;;;;4935083;29;20260;-67
2021/05/29 05:31:16;;;;;;;25.92;18.40;;;10.50;99.90;;;;;;4935418;29;20289;-68
2021/05/29 05:33:44;;;;;;;28.02;20.10;;;10.50;99.90;;;;;;4934078;29;20206;-68
2021/05/29 05:36:13;;;;;;;28.40;19.02;;;10.50;99.90;;;;;;4935086;29;20210;-69
2021/05/29 05:38:40;;;;;;;27.50;19.45;;;10.50;99.90;;;;;;4935063;29;20237;-68
2021/05/29 05:41:07;;;;;;;28.08;19.70;;;10.50;99.90;;;;;;4935138;29;20237;-68
2021/05/29 05:43:35;;;;;;;29.90;20.73;;;10.50;99.90;;;;;;4934846;29;20602;-68
2021/05/29 05:46:02;;;;;;;29.00;21.25;;;10.50;99.90;;;;;;4935205;29;20213;-65
2021/05/29 05:48:29;;;;;;;26.23;17.95;;;10.60;99.90;;;;;;4933929;29;20307;-67
2021/05/29 05:50:56;;;;;;;25.30;18.23;;;10.60;99.90;;;;;;4934947;29;20230;-66
2021/05/29 05:53:24;;;;;;;27.40;19.02;;;10.60;99.90;;;;;;4934825;29;20297;-66
2021/05/29 05:55:54;;;;;;;29.25;18.08;;;10.70;99.90;;;;;;4935064;29;20252;-65
2021/05/29 05:58:20;;;;;;;25.27;18.00;;;10.70;99.90;;;;;;4934758;29;20230;-65
2021/05/29 06:00:47;;;;;;;25.70;18.67;;;10.70;99.90;;;;;;4934614;28;20253;-66
2021/05/29 06:03:13;;;;;;;28.05;18.85;;;10.70;99.90;;;;;;4933837;29;20214;-66
2021/05/29 06:05:40;;;;;;;23.38;17.88;;;10.80;99.90;;;;;;4934775;29;20682;-66
2021/05/29 06:08:06;;;;;;;22.60;17.15;;;10.80;99.90;;;;;;4934758;29;20216;-66
2021/05/29 06:10:32;;;;;;;25.85;18.23;;;10.80;99.90;;;;;;4934935;29;20237;-68
2021/05/29 06:12:59;;;;;;;26.05;17.45;;;10.80;99.90;;;;;;4934643;29;20237;-68
2021/05/29 06:18:30;;;;;;;29.65;18.00;;;10.80;99.90;;;;;;4937603;29;20232;-65
2021/05/29 06:20:56;;;;;;;22.67;17.00;;;10.80;99.90;;;;;;4938759;29;20642;-65
2021/05/29 06:23:23;;;;;;;27.02;17.63;;;10.90;99.90;;;;;;4938065;29;20214;-65
2021/05/29 06:25:49;;;;;;;25.02;17.92;;;10.90;99.90;;;;;;4938735;29;20217;-65
2021/05/29 06:28:15;;;;;;;22.40;16.50;;;10.90;99.90;;;;;;4938083;29;20206;-65
2021/05/29 06:30:41;;;;;;;26.50;16.92;;;10.90;99.90;;;;;;4938507;29;20234;-65
2021/05/29 06:33:07;;;;;;;24.05;17.60;;;10.90;99.90;;;;;;4937398;29;20218;-65
2021/05/29 06:35:34;;;;;;;23.02;16.75;;;11.00;99.90;;;;;;4938424;28;20551;-64
2021/05/29 06:38:00;;;;;;;21.92;16.23;;;11.00;99.90;;;;;;4938008;29;20206;-64
2021/05/29 06:40:27;;;;;;;19.52;15.48;;;11.00;99.90;;;;;;4938195;29;20245;-67
2021/05/29 06:42:54;;;;;;;20.10;15.63;;;11.00;99.90;;;;;;4937803;29;20206;-67
2021/05/29 06:45:20;;;;;;;23.17;16.85;;;11.00;99.90;;;;;;4938204;29;20701;-67
2021/05/29 06:47:46;;;;;;;22.98;16.67;;;11.00;99.90;;;;;;4937219;28;20214;-67
2021/05/29 06:50:13;;;;;;;22.95;15.52;;;11.00;99.90;;;;;;4938208;29;20217;-67
2021/05/29 06:52:44;;;;;;;20.83;16.20;;;11.00;99.90;;;;;;4937742;29;20213;-67
2021/05/29 07:00:38;;;;;;;17.48;14.77;;;11.20;99.90;;;;;;4928706;29;20229;-64
2021/05/29 07:03:04;;;;;;;22.63;15.35;;;11.20;99.90;;;;;;4936792;29;20210;-65
2021/05/29 07:05:30;;;;;;;22.52;16.73;;;11.10;99.90;;;;;;4937675;29;20236;-67
2021/05/29 07:07:57;;;;;;;21.13;15.60;;;11.10;99.90;;;;;;4937612;29;20217;-67
2021/05/29 07:10:24;;;;;;;20.30;13.95;;;11.10;99.90;;;;;;4937794;29;20257;-67
2021/05/29 07:12:50;;;;;;;18.13;14.60;;;11.10;99.90;;;;;;4937373;29;20678;-67
2021/05/29 07:15:16;;;;;;;18.80;14.05;;;11.10;99.90;;;;;;4937275;29;20674;-67
2021/05/29 07:17:46;;;;;;;18.70;13.25;;;11.10;99.90;;;;;;4936299;29;20210;-67
2021/05/29 07:20:14;;;;;;;23.35;14.80;;;11.10;99.90;;;;;;4937518;29;20306;-67
2021/05/29 07:22:40;;;;;;;21.15;15.45;;;11.20;99.90;;;;;;4937023;29;20213;-67
2021/05/29 07:25:08;;;;;;;18.20;14.60;;;11.20;99.90;;;;;;4937571;29;20214;-67
2021/05/29 07:27:35;;;;;;;23.17;15.93;;;11.30;99.90;;;;;;4936295;29;20263;-67
2021/05/29 07:30:06;;;;;;;24.45;16.52;;;11.30;99.90;;;;;;4937182;29;20202;-67
2021/05/29 07:32:33;;;;;;;24.30;16.52;;;11.40;99.90;;;;;;4936011;29;20239;-64
2021/05/29 07:34:59;;;;;;;22.50;15.30;;;11.40;99.90;;;;;;4936760;29;20610;-65
2021/05/29 07:37:25;;;;;;;18.67;15.55;;;11.40;99.90;;;;;;4936655;29;20232;-65
2021/05/29 07:39:51;;;;;;;19.67;14.93;;;11.40;99.90;;;;;;4937153;29;20259;-65
2021/05/29 07:42:18;;;;;;;23.63;15.98;;;11.40;99.90;;;;;;4936768;29;20230;-65
2021/05/29 07:44:44;;;;;;;22.92;14.70;;;11.50;99.90;;;;;;4937089;29;20237;-65
2021/05/29 07:47:19;;;;;;;20.23;14.75;;;11.50;99.90;;;;;;4937967;29;20248;-65
2021/05/29 07:49:45;;;;;;;20.40;14.68;;;11.50;99.90;;;;;;4936790;29;20245;-65
2021/05/29 07:52:12;;;;;;;15.68;13.40;;;11.50;99.90;;;;;;4936775;29;20233;-66
2021/05/29 07:54:38;;;;;;;20.83;15.77;;;11.60;99.90;;;;;;4936631;29;20214;-65
2021/05/29 07:57:04;;;;;;;21.45;14.20;;;11.60;99.90;;;;;;4936840;29;20214;-67
2021/05/29 07:59:31;;;;;;;17.10;12.88;;;11.70;99.90;;;;;;4936597;29;20538;-68
2021/05/29 08:01:58;;;;;;;16.00;12.60;;;11.60;99.90;;;;;;4935750;29;20548;-67
2021/05/29 08:04:24;;;;;;;15.20;12.38;;;11.60;99.90;;;;;;4935913;29;20214;-68
2021/05/29 08:06:50;;;;;;;15.52;13.10;;;11.60;99.90;;;;;;4936372;29;20206;-68
2021/05/29 08:09:16;;;;;;;16.77;13.07;;;11.60;99.90;;;;;;4936235;29;20210;-68
2021/05/29 08:11:42;;;;;;;15.20;12.77;;;11.60;99.90;;;;;;4936280;28;20233;-68
2021/05/29 08:14:10;;;;;;;15.30;11.40;;;11.60;99.90;;;;;;4936007;29;20214;-68
2021/05/29 08:16:39;;;;;;;13.75;11.15;;;11.70;99.90;;;;;;4935504;29;20577;-69
2021/05/29 08:19:08;;;;;;;16.92;12.68;;;11.70;99.90;;;;;;4935844;29;20265;-68
2021/05/29 08:21:34;;;;;;;15.82;12.35;;;11.80;99.90;;;;;;4935907;28;20225;-65
2021/05/29 08:24:00;;;;;;;15.55;12.07;;;11.90;99.90;;;;;;4935881;29;20209;-66
2021/05/29 08:26:26;;;;;;;14.45;12.15;;;11.90;99.90;;;;;;4936114;29;20554;-66
2021/05/29 08:28:53;;;;;;;17.90;14.40;;;12.00;99.90;;;;;;4935797;29;20718;-65
2021/05/29 08:31:19;;;;;;;15.23;13.65;;;12.00;99.90;;;;;;4936220;28;20234;-65
2021/05/29 08:33:46;;;;;;;21.15;14.43;;;12.10;99.90;;;;;;4939166;29;20210;-65
2021/05/29 08:36:12;;;;;;;18.42;14.93;;;12.20;99.90;;;;;;4936152;29;20205;-65
2021/05/29 08:38:38;;;;;;;22.05;15.30;;;12.20;99.90;;;;;;4935413;29;20230;-65
2021/05/29 08:41:05;;;;;;;23.45;16.33;;;12.20;99.90;;;;;;4935996;29;20237;-65
2021/05/29 08:43:32;;;;;;;20.23;16.50;;;12.10;99.90;;;;;;4935350;29;20241;-66
2021/05/29 08:45:58;;;;;;;20.27;15.27;;;12.20;99.90;;;;;;4936032;29;20214;-68
2021/05/29 08:48:25;;;;;;;20.98;15.88;;;12.20;99.90;;;;;;4934965;29;20202;-68
2021/05/29 08:53:36;;;;;;;22.38;16.60;;;12.30;99.90;;;;;;4935199;29;20577;-69
2021/05/29 08:56:02;;;;;;;20.83;16.00;;;12.30;99.90;;;;;;4935565;29;20580;-68
2021/05/29 08:58:29;;;;;;;20.52;14.05;;;12.20;99.90;;;;;;4935245;29;20229;-69
2021/05/29 09:00:57;;;;;;;20.20;14.93;;;12.20;99.90;;;;;;4935575;29;20611;-69
2021/05/29 09:03:23;;;;;;;18.27;14.50;;;12.00;99.90;;;;;;4934330;28;20214;-69
2021/05/29 09:05:53;;;;;;;20.92;14.68;;;11.90;99.90;;;;;;4935706;29;20263;-69
2021/05/29 09:08:21;;;;;;;22.83;14.90;;;11.90;99.90;;;;;;4935250;29;20202;-69
2021/05/29 09:10:51;;;;;;;18.83;15.18;;;11.90;99.90;;;;;;4935396;29;20671;-66
2021/05/29 09:13:19;;;;;;;17.88;15.07;;;12.10;99.90;;;;;;4935073;29;20658;-67
2021/05/29 09:15:52;;;;;;;17.83;14.38;;;11.90;99.90;;;;;;4935324;29;20236;-66
2021/05/29 09:18:39;;;;;;;22.95;16.77;;;11.80;99.90;;;;;;4934589;29;22577;-67
2021/05/29 09:21:18;;;;;;;19.92;15.35;;;11.60;99.90;;;;;;4932231;29;20234;-68
2021/05/29 09:23:46;;;;;;;19.67;15.32;;;11.60;99.90;;;;;;4935174;29;20277;-69
2021/05/29 09:26:12;;;;;;;22.85;16.48;;;11.80;99.90;;;;;;4935522;29;20210;-68
2021/05/29 09:28:41;;;;;;;21.98;14.88;;;12.00;99.90;;;;;;4935671;29;20216;-69
2021/05/29 09:31:12;;;;;;;19.42;13.82;;;12.10;99.90;;;;;;4939312;29;20237;-68
2021/05/29 09:33:38;;;;;;;20.00;14.88;;;12.00;99.90;;;;;;4937747;29;20246;-68
2021/05/29 09:36:09;;;;;;;18.95;14.63;;;12.10;99.90;;;;;;4937625;29;20212;-69
2021/05/29 09:38:38;;;;;;;14.27;12.80;;;12.20;99.90;;;;;;4938638;29;20233;-68
2021/05/29 09:41:07;;;;;;;20.00;13.55;;;12.30;99.90;;;;;;4938360;29;20256;-68
2021/05/29 09:43:52;;;;;;;14.75;10.68;;;12.40;99.90;;;;;;4938175;29;20213;-69
2021/05/29 09:46:18;;;;;;;11.75;10.10;;;12.50;99.90;;;;;;4938970;29;20229;-68
2021/05/29 09:48:53;;;;;;;11.77;10.20;;;12.40;99.90;;;;;;4937239;29;20206;-68
2021/05/29 09:51:20;;;;;;;15.27;10.93;;;12.50;99.90;;;;;;4938427;29;20237;-68
2021/05/29 09:53:49;;;;;;;11.25;9.27;;;12.60;99.90;;;;;;4935302;29;20572;-69
2021/05/29 09:56:27;;;;;;;10.18;9.05;;;12.80;99.90;;;;;;4935683;29;20214;-68
2021/05/29 09:58:58;;;;;;;10.83;9.13;;;12.80;99.90;;;;;;4935217;29;20233;-68
2021/05/29 10:01:50;;;;;;;8.77;7.72;;;12.90;99.90;;;;;;4935299;29;20858;-69
2021/05/29 10:04:31;;;;;;;9.52;8.10;;;12.90;99.90;;;;;;4925339;29;20661;-68
2021/05/29 10:06:59;;;;;;;9.20;6.97;;;12.90;99.90;;;;;;4937169;29;20209;-68
2021/05/29 10:09:27;;;;;;;8.87;7.80;;;13.20;99.90;;;;;;4940313;29;20465;-68
2021/05/29 10:11:54;;;;;;;7.97;7.03;;;13.50;99.90;;;;;;4939411;29;20481;-68
2021/05/29 10:14:20;;;;;;;6.90;6.40;;;13.80;99.90;;;;;;4941004;28;20545;-65
2021/05/29 10:16:48;;;;;;;7.00;6.40;;;14.10;99.90;;;;;;4941205;29;20776;-66
2021/05/29 10:19:15;;;;;;;8.53;6.30;;;14.30;99.90;;;;;;4942656;29;20842;-66
2021/05/29 10:21:41;;;;;;;6.00;5.60;;;14.50;99.90;;;;;;4942218;29;20481;-67
2021/05/29 10:24:08;;;;;;;6.93;6.43;;;14.60;99.90;;;;;;4942679;29;20465;-66
2021/05/29 10:26:36;;;;;;;7.77;6.20;;;14.70;99.90;;;;;;4942262;28;20481;-66
2021/05/29 10:29:05;;;;;;;7.10;6.40;;;14.80;99.90;;;;;;4940037;29;20457;-67
2021/05/29 10:31:34;;;;;;;6.30;5.70;;;14.70;99.90;;;;;;4935331;29;20572;-67
2021/05/29 10:34:01;;;;;;;6.33;5.93;;;14.80;99.90;;;;;;4934974;29;20465;-66
2021/05/29 10:36:41;;;;;;;6.70;5.70;;;14.70;99.90;;;;;;4935361;29;21062;-66
2021/05/29 10:39:10;;;;;;;7.73;6.60;;;14.80;99.90;;;;;;4935122;29;21028;-67
2021/05/29 10:41:58;;;;;;;6.33;5.90;;;15.10;99.90;;;;;;4935394;29;20492;-67
2021/05/29 10:44:30;;;;;;;7.17;6.50;;;15.30;99.90;;;;;;4935123;29;20636;-66
2021/05/29 10:47:09;;;;;;;5.70;5.30;;;15.60;99.90;;;;;;4934158;29;20880;-65
2021/05/29 10:49:58;;;;;;;6.40;5.77;;;15.60;99.90;;;;;;4933988;29;20477;-65
2021/05/29 10:52:52;;;;;;;6.47;5.97;;;15.70;99.90;;;;;;4934005;29;20573;-66
2021/05/29 10:55:23;;;;;;;6.13;5.73;;;15.80;99.90;;;;;;4934283;29;21013;-65
2021/05/29 10:57:55;;;;;;;6.77;5.83;;;15.70;99.90;;;;;;4934288;29;20472;-65
2021/05/29 11:00:58;;;;;;;6.77;6.17;;;15.80;99.90;;;;;;4934776;29;20493;-65
2021/05/29 11:03:27;;;;;;;5.90;5.60;;;15.80;99.90;;;;;;4936439;29;20985;-66
2021/05/29 11:05:55;;;;;;;5.77;5.27;;;15.80;99.90;;;;;;4937876;29;20465;-65
2021/05/29 11:08:47;;;;;;;5.90;5.57;;;15.80;99.90;;;;;;4937584;29;20525;-65
2021/05/29 11:11:51;;;;;;;5.60;5.20;;;15.90;99.90;;;;;;4937562;29;20485;-66
2021/05/29 11:14:20;;;;;;;5.67;5.27;;;16.20;99.90;;;;;;4937291;28;20512;-65
2021/05/29 11:17:12;;;;;;;5.70;5.30;;;16.40;99.90;;;;;;4936776;29;20962;-65
2021/05/29 11:19:40;;;;;;;6.27;5.77;;;16.70;99.90;;;;;;4936951;29;20580;-66
2021/05/29 11:22:09;;;;;;;5.57;5.17;;;16.70;99.90;;;;;;4936654;29;20493;-66
2021/05/29 11:24:39;;;;;;;6.07;5.67;;;16.80;99.90;;;;;;4937049;28;20480;-65
2021/05/29 11:27:07;;;;;;;5.43;5.20;;;16.80;99.90;;;;;;4936910;29;20481;-66
2021/05/29 11:29:55;;;;;;;6.80;6.20;;;16.70;99.90;;;;;;4936472;29;20946;-66
2021/05/29 11:32:48;;;;;;;7.40;6.80;;;16.90;99.90;;;;;;4935649;29;20545;-66
2021/05/29 11:35:23;;;;;;;8.50;7.80;;;16.90;99.90;;;;;;4936730;28;20481;-66
2021/05/29 11:38:09;;;;;;;8.23;7.70;;;16.80;99.90;;;;;;4936774;29;20469;-66
2021/05/29 11:40:54;;;;;;;7.97;7.37;;;16.80;99.90;;;;;;4936680;29;20844;-68
2021/05/29 11:43:34;;;;;;;7.33;6.83;;;16.90;99.90;;;;;;4936703;29;20465;-69
2021/05/29 11:46:03;;;;;;;7.20;6.60;;;16.90;99.90;;;;;;4937050;29;20506;-69
2021/05/29 11:48:36;;;;;;;7.40;6.67;;;17.10;99.90;;;;;;4935865;29;20929;-68
2021/05/29 11:51:10;;;;;;;7.60;7.00;;;16.90;99.90;;;;;;4937270;29;20492;-67
2021/05/29 11:53:38;;;;;;;13.23;9.67;;;16.80;99.90;;;;;;4936840;29;20505;-68
2021/05/29 11:56:06;;;;;;;11.23;10.13;;;16.90;99.90;;;;;;4936498;28;20477;-68
2021/05/29 11:58:42;;;;;;;11.00;10.10;;;17.00;99.90;;;;;;4936611;29;20520;-68
2021/05/29 12:01:10;;;;;;;11.33;10.27;;;17.10;99.90;;;;;;4936773;29;20497;-68
2021/05/29 12:03:56;;;;;;;11.13;10.03;;;17.10;99.90;;;;;;4935583;29;20470;-68
2021/05/29 12:06:43;;;;;;;11.17;10.10;;;17.20;99.90;;;;;;4936518;28;20497;-69
2021/05/29 12:09:12;;;;;;;11.63;10.60;;;17.40;99.90;;;;;;4937034;29;20932;-68
2021/05/29 12:11:40;;;;;;;10.00;9.10;;;17.50;99.90;;;;;;4936489;29;20489;-68
2021/05/29 12:14:10;;;;;;;10.40;9.50;;;17.40;99.90;;;;;;4936224;29;20546;-68
2021/05/29 12:16:39;;;;;;;10.50;9.57;;;17.30;99.90;;;;;;4936727;29;20461;-68
2021/05/29 12:19:06;;;;;;;9.47;8.67;;;17.40;99.90;;;;;;4935773;29;20612;-68
2021/05/29 12:21:44;;;;;;;8.70;7.90;;;17.30;99.90;;;;;;4936386;29;20492;-68
2021/05/29 12:24:11;;;;;;;12.63;9.27;;;17.30;99.90;;;;;;4936324;29;20478;-68
2021/05/29 12:26:37;;;;;;;9.53;8.83;;;17.40;99.90;;;;;;4935944;29;20466;-68
2021/05/29 12:29:04;;;;;;;9.37;8.60;;;17.00;99.90;;;;;;4935891;29;20783;-68
2021/05/29 12:31:55;;;;;;;8.53;7.80;;;17.00;99.90;;;;;;4935767;29;20489;-67
2021/05/29 12:34:23;;;;;;;8.63;8.00;;;16.80;99.90;;;;;;4935283;28;20969;-68
2021/05/29 12:37:07;;;;;;;9.33;8.43;;;16.60;99.90;;;;;;4936382;29;20508;-67
2021/05/29 12:39:51;;;;;;;11.80;10.60;;;16.40;99.90;;;;;;4935709;29;20520;-68
2021/05/29 12:42:23;;;;;;;9.17;8.30;;;16.00;99.90;;;;;;4935471;29;20955;-68
2021/05/29 12:44:51;;;;;;;11.50;10.30;;;16.00;99.90;;;;;;4935720;29;20465;-65
2021/05/29 12:47:21;;;;;;;10.57;9.67;;;16.20;99.90;;;;;;4935585;29;20461;-67
2021/05/29 12:49:48;;;;;;;13.70;10.90;;;16.20;99.90;;;;;;4936898;28;20477;-68
2021/05/29 12:52:22;;;;;;;10.43;9.50;;;16.10;99.90;;;;;;4935047;29;20490;-69
2021/05/29 12:54:49;;;;;;;12.23;10.47;;;16.20;99.90;;;;;;4935743;29;20465;-69
2021/05/29 12:57:15;;;;;;;11.13;10.03;;;16.10;99.90;;;;;;4935687;29;20480;-70
2021/05/29 12:59:42;;;;;;;11.23;10.13;;;16.10;99.90;;;;;;4935360;29;20830;-67
2021/05/29 13:02:20;;;;;;;11.30;10.30;;;16.20;99.90;;;;;;4934424;29;20520;-66
2021/05/29 13:07:43;;;;;;;13.33;11.97;;;16.60;99.90;;;;;;4935268;29;20601;-67
2021/05/29 13:10:20;;;;;;;12.73;10.73;;;16.70;99.90;;;;;;4935192;29;20469;-67
2021/05/29 13:13:00;;;;;;;10.50;9.57;;;16.80;99.90;;;;;;4934861;28;20608;-67
2021/05/29 13:15:28;;;;;;;11.83;10.73;;;16.90;99.90;;;;;;4935399;29;20470;-67
2021/05/29 13:18:09;;;;;;;10.57;9.57;;;16.90;99.90;;;;;;4934460;29;20499;-68
2021/05/29 13:20:38;;;;;;;10.80;9.83;;;17.00;99.90;;;;;;4935359;29;20493;-67
2021/05/29 13:23:04;;;;;;;12.30;11.10;;;17.20;99.90;;;;;;4934517;28;21022;-67
2021/05/29 13:25:39;;;;;;;9.70;8.73;;;17.10;99.90;;;;;;4935109;29;20469;-68
2021/05/29 13:28:10;;;;;;;10.50;9.70;;;17.10;99.90;;;;;;4935071;29;20528;-68
2021/05/29 13:30:37;;;;;;;10.83;9.93;;;17.30;99.90;;;;;;4935116;29;20485;-68
2021/05/29 13:33:04;;;;;;;12.17;11.17;;;17.30;99.90;;;;;;4934226;29;20485;-68
2021/05/29 13:35:31;;;;;;;10.17;9.10;;;17.30;99.90;;;;;;4935122;29;20469;-68
2021/05/29 13:37:58;;;;;;;12.40;11.20;;;17.30;99.90;;;;;;4935102;29;20470;-68
2021/05/29 13:40:25;;;;;;;11.20;10.13;;;17.40;99.90;;;;;;4935118;29;20494;-68
2021/05/29 13:42:52;;;;;;;11.23;10.00;;;17.50;99.90;;;;;;4934963;29;20514;-69
2021/05/29 13:45:20;;;;;;;11.73;10.53;;;17.50;99.90;;;;;;4934988;28;20481;-69
2021/05/29 13:47:47;;;;;;;10.97;10.07;;;17.40;99.90;;;;;;4934123;29;20988;-69
2021/05/29 13:50:14;;;;;;;11.17;10.03;;;17.30;99.90;;;;;;4935278;29;20874;-69
2021/05/29 13:52:40;;;;;;;10.37;9.67;;;17.40;99.90;;;;;;4935094;29;20520;-66
2021/05/29 13:55:09;;;;;;;10.60;9.80;;;17.40;99.90;;;;;;4935335;29;20477;-66
2021/05/29 13:57:35;;;;;;;10.83;9.57;;;17.30;99.90;;;;;;4934977;28;20541;-66
2021/05/29 14:00:02;;;;;;;11.50;10.40;;;17.20;99.90;;;;;;4934763;29;20501;-66
2021/05/29 14:02:28;;;;;;;13.30;10.97;;;17.30;99.90;;;;;;4933513;29;20529;-66
2021/05/29 14:04:54;;;;;;;12.13;11.03;;;17.40;99.90;;;;;;4935063;29;20529;-66
2021/05/29 14:07:21;;;;;;;10.90;9.90;;;17.30;99.90;;;;;;4934607;28;20469;-65
2021/05/29 14:09:48;;;;;;;11.43;10.40;;;17.30;99.90;;;;;;4934867;29;20472;-66
2021/05/29 14:12:15;;;;;;;11.10;9.00;;;17.50;99.90;;;;;;4934688;29;20492;-66
2021/05/29 14:14:41;;;;;;;10.43;9.53;;;17.40;99.90;;;;;;4934783;29;20473;-67
2021/05/29 14:17:07;;;;;;;9.33;8.63;;;17.50;99.90;;;;;;4934311;29;20503;-66
2021/05/29 14:19:34;;;;;;;9.00;8.30;;;17.50;99.90;;;;;;4934014;28;21010;-66
2021/05/29 14:22:00;;;;;;;10.33;9.53;;;17.40;99.90;;;;;;4934623;29;20564;-66
2021/05/29 14:24:26;;;;;;;9.57;8.87;;;17.50;99.90;;;;;;4934483;29;20465;-66
2021/05/29 14:26:52;;;;;;;9.43;8.73;;;17.50;99.90;;;;;;4935206;29;20466;-66
2021/05/29 14:29:19;;;;;;;9.73;9.03;;;17.70;99.90;;;;;;4934531;29;20949;-66
2021/05/29 14:31:46;;;;;;;10.53;8.90;;;17.80;99.90;;;;;;4933889;29;20906;-66
2021/05/29 14:34:12;;;;;;;9.43;8.70;;;17.80;99.90;;;;;;4934234;29;20524;-66
2021/05/29 14:36:38;;;;;;;8.77;8.17;;;18.00;99.90;;;;;;4936876;29;20806;-67
2021/05/29 14:39:06;;;;;;;9.47;8.67;;;18.00;99.90;;;;;;4937943;29;20859;-66
2021/05/29 14:41:32;;;;;;;9.53;8.70;;;17.80;99.90;;;;;;4937755;29;20863;-66
2021/05/29 14:43:59;;;;;;;9.90;9.00;;;17.50;99.90;;;;;;4937603;29;20474;-66
2021/05/29 14:46:26;;;;;;;8.70;8.00;;;17.60;99.90;;;;;;4937935;29;20473;-67
2021/05/29 14:48:52;;;;;;;9.60;8.90;;;17.70;99.90;;;;;;4937531;29;20520;-67
2021/05/29 14:51:22;;;;;;;9.37;8.60;;;17.70;99.90;;;;;;4937691;28;20818;-66
2021/05/29 14:53:50;;;;;;;8.77;7.87;;;17.90;99.90;;;;;;4937567;29;20469;-66
2021/05/29 14:56:18;;;;;;;10.20;9.10;;;18.00;99.90;;;;;;4937735;29;20480;-66
2021/05/29 14:58:44;;;;;;;9.37;8.57;;;18.00;99.90;;;;;;4937123;29;20472;-66
2021/05/29 15:01:11;;;;;;;9.47;8.67;;;17.90;99.90;;;;;;4937262;29;20497;-66
2021/05/29 15:03:40;;;;;;;10.87;9.77;;;18.00;99.90;;;;;;4936267;28;20540;-66
2021/05/29 15:06:07;;;;;;;9.87;8.97;;;18.10;99.90;;;;;;4937610;29;20469;-66
2021/05/29 15:08:34;;;;;;;9.83;8.90;;;18.20;99.90;;;;;;4937601;29;20476;-66
2021/05/29 15:11:00;;;;;;;8.83;8.13;;;18.20;99.90;;;;;;4937593;29;21028;-66
2021/05/29 15:13:26;;;;;;;10.30;8.40;;;18.30;99.90;;;;;;4937512;29;20473;-66
2021/05/29 15:15:53;;;;;;;9.87;9.00;;;18.40;99.90;;;;;;4938158;29;20468;-67
2021/05/29 15:18:19;;;;;;;9.43;8.70;;;18.40;99.90;;;;;;4936693;29;20500;-67
2021/05/29 15:23:27;;;;;;;10.20;9.27;;;18.40;99.90;;;;;;4937496;29;20461;-65
2021/05/29 15:25:54;;;;;;;8.97;8.17;;;18.40;99.90;;;;;;4937594;29;20496;-65
2021/05/29 15:28:21;;;;;;;9.87;8.87;;;18.40;99.90;;;;;;4937142;29;20461;-66
2021/05/29 15:30:47;;;;;;;10.13;8.40;;;18.50;99.90;;;;;;4937230;29;20488;-65
2021/05/29 15:33:13;;;;;;;9.47;8.67;;;18.50;99.90;;;;;;4936058;29;20855;-66
2021/05/29 15:35:40;;;;;;;10.30;9.27;;;18.50;99.90;;;;;;4937250;29;20823;-65
2021/05/29 15:38:07;;;;;;;9.20;8.47;;;18.40;99.90;;;;;;4937399;29;20536;-66
2021/05/29 15:40:33;;;;;;;8.87;8.07;;;18.50;99.90;;;;;;4936669;29;20647;-66
2021/05/29 15:42:59;;;;;;;9.50;8.37;;;18.60;99.90;;;;;;4937023;29;20466;-66
2021/05/29 15:45:26;;;;;;;9.60;8.80;;;18.60;99.90;;;;;;4937023;29;20466;-65
2021/05/29 15:47:53;;;;;;;8.40;7.83;;;18.60;99.90;;;;;;4934890;28;20516;-66
2021/05/29 15:50:19;;;;;;;9.70;8.90;;;18.50;99.90;;;;;;4936825;29;20462;-66
2021/05/29 15:52:46;;;;;;;9.43;8.53;;;18.50;99.90;;;;;;4936449;29;20466;-67
2021/05/29 15:55:15;;;;;;;8.93;8.23;;;18.50;99.90;;;;;;4937160;29;20465;-69
2021/05/29 15:57:41;;;;;;;10.60;8.50;;;18.50;99.90;;;;;;4936856;29;20469;-68
2021/05/29 16:00:09;;;;;;;9.30;8.30;;;18.30;99.90;;;;;;4936515;28;20513;-68
2021/05/29 16:02:35;;;;;;;10.27;7.93;;;18.30;99.90;;;;;;4935638;29;20532;-68
2021/05/29 16:05:02;;;;;;;8.87;8.10;;;18.40;99.90;;;;;;4936698;29;20833;-68
2021/05/29 16:07:28;;;;;;;11.30;9.37;;;18.40;99.90;;;;;;4936475;29;20465;-68
2021/05/29 16:09:56;;;;;;;8.70;8.00;;;18.40;99.90;;;;;;4936854;29;20925;-68
2021/05/29 16:12:24;;;;;;;8.93;8.30;;;18.40;99.90;;;;;;4936019;29;20496;-68
2021/05/29 16:14:50;;;;;;;9.20;8.43;;;18.50;99.90;;;;;;4936609;29;20869;-68
2021/05/29 16:17:19;;;;;;;10.87;8.43;;;18.40;99.90;;;;;;4935357;29;20469;-68
2021/05/29 16:19:46;;;;;;;8.50;7.83;;;18.20;99.90;;;;;;4936140;29;20495;-68
2021/05/29 16:22:12;;;;;;;10.47;8.13;;;18.10;99.90;;;;;;4936240;29;20843;-67
2021/05/29 16:24:39;;;;;;;9.23;8.33;;;18.10;99.90;;;;;;4936600;29;20826;-68
2021/05/29 16:27:06;;;;;;;8.73;7.97;;;18.10;99.90;;;;;;4936538;29;20501;-69
2021/05/29 16:29:33;;;;;;;8.87;8.27;;;18.10;99.90;;;;;;4936539;29;20552;-69
2021/05/29 16:31:59;;;;;;;8.37;7.67;;;18.00;99.90;;;;;;4935733;29;20577;-68
2021/05/29 16:34:25;;;;;;;8.67;7.90;;;18.10;99.90;;;;;;4936408;28;20478;-69
2021/05/29 16:36:51;;;;;;;8.13;7.50;;;18.10;99.90;;;;;;4936288;29;20469;-69
2021/05/29 16:39:18;;;;;;;8.70;8.03;;;18.10;99.90;;;;;;4935969;29;20492;-69
2021/05/29 16:41:45;;;;;;;8.30;7.70;;;18.10;99.90;;;;;;4935939;29;20493;-69
2021/05/29 16:44:14;;;;;;;10.07;8.63;;;18.20;99.90;;;;;;4935700;29;20544;-70
2021/05/29 16:46:41;;;;;;;10.43;9.60;;;18.20;99.90;;;;;;4935372;29;20501;-70
2021/05/29 16:49:07;;;;;;;10.13;8.00;;;18.20;99.90;;;;;;4935265;29;20465;-69
2021/05/29 16:51:33;;;;;;;11.20;10.40;;;18.10;99.90;;;;;;4936234;29;20493;-69
2021/05/29 16:54:00;;;;;;;11.87;10.87;;;18.00;99.90;;;;;;4935641;29;20466;-69
2021/05/29 16:56:27;;;;;;;8.80;8.20;;;18.00;99.90;;;;;;4935956;29;20801;-67
2021/05/29 16:58:53;;;;;;;14.83;13.30;;;18.00;99.90;;;;;;4935188;28;20504;-70
2021/05/29 17:01:20;;;;;;;8.50;7.90;;;17.90;99.90;;;;;;4935543;29;20553;-70